createdAt,value
2018-11-23T00:02:38.552Z,29.40
2018-11-23T00:05:42.718Z,29.80
2018-11-23T00:08:46.867Z,29.40
2018-11-23T00:11:51.056Z,28.60
2018-11-23T00:14:55.310Z,29.50
2018-11-23T00:17:59.459Z,27.90
2018-11-23T00:21:03.622Z,29.07
2018-11-23T00:24:07.769Z,30.67
2018-11-23T00:27:11.936Z,28.17
2018-11-23T00:30:17.668Z,27.40
2018-11-23T00:33:21.829Z,30.37
2018-11-23T00:36:25.997Z,28.20
2018-11-23T00:39:30.153Z,27.90
2018-11-23T00:42:34.328Z,28.80
2018-11-23T00:45:43.083Z,31.87
2018-11-23T00:48:42.665Z,30.20
2018-11-23T00:51:46.841Z,31.30
2018-11-23T00:54:50.993Z,27.83
2018-11-23T00:57:55.166Z,30.33
2018-11-23T01:00:59.318Z,29.27
2018-11-23T01:04:03.498Z,32.70
2018-11-23T01:07:07.669Z,33.63
2018-11-23T01:10:14.098Z,31.53
2018-11-23T01:13:18.261Z,32.23
2018-11-23T01:16:22.413Z,31.07
2018-11-23T01:19:26.569Z,33.57
2018-11-23T01:22:30.734Z,30.83
2018-11-23T01:25:34.881Z,32.03
2018-11-23T01:28:39.045Z,29.10
2018-11-23T01:31:43.267Z,33.50
2018-11-23T01:34:47.429Z,30.43
2018-11-23T01:37:51.602Z,30.40
2018-11-23T01:40:55.607Z,35.67
2018-11-23T01:43:59.622Z,32.37
2018-11-23T01:47:03.644Z,30.00
2018-11-23T01:50:09.805Z,31.57
2018-11-23T01:53:13.818Z,31.90
2018-11-23T01:56:17.829Z,33.37
2018-11-23T01:59:21.849Z,33.47
2018-11-23T02:02:25.840Z,32.90
2018-11-23T02:05:29.852Z,32.33
2018-11-23T02:08:33.924Z,30.57
2018-11-23T02:11:38.094Z,32.40
2018-11-23T02:14:41.900Z,35.40
2018-11-23T02:17:46.365Z,36.87
2018-11-23T02:20:50.509Z,35.40
2018-11-23T02:23:54.550Z,32.10
2018-11-23T02:26:58.542Z,31.93
2018-11-23T02:30:02.619Z,32.47
2018-11-23T02:33:06.618Z,34.63
2018-11-23T02:36:11.138Z,32.90
2018-11-23T02:39:15.129Z,36.03
2018-11-23T02:42:19.121Z,34.50
2018-11-23T02:45:24.044Z,34.00
2018-11-23T02:48:28.221Z,33.57
2018-11-23T02:51:32.230Z,32.40
2018-11-23T02:54:36.232Z,36.07
2018-11-23T02:57:40.231Z,32.73
2018-11-23T03:00:44.233Z,34.27
2018-11-23T03:03:48.218Z,36.27
2018-11-23T03:06:52.221Z,34.23
2018-11-23T03:09:56.204Z,34.27
2018-11-23T03:13:00.205Z,35.20
2018-11-23T03:16:04.228Z,33.87
2018-11-23T03:19:08.565Z,35.57
2018-11-23T03:22:12.572Z,35.90
2018-11-23T03:25:16.620Z,31.83
2018-11-23T03:28:20.628Z,34.17
2018-11-23T03:31:25.615Z,33.60
2018-11-23T03:34:29.603Z,36.00
2018-11-23T03:37:33.610Z,34.10
2018-11-23T03:40:37.630Z,34.07
2018-11-23T03:43:41.735Z,36.03
2018-11-23T03:46:45.754Z,33.87
2018-11-23T03:49:49.753Z,33.83
2018-11-23T03:52:53.773Z,31.10
2018-11-23T03:55:57.795Z,37.20
2018-11-23T03:59:01.850Z,35.40
2018-11-23T04:02:06.426Z,36.43
2018-11-23T04:05:10.433Z,35.20
2018-11-23T04:08:14.431Z,33.43
2018-11-23T04:11:18.457Z,35.67
2018-11-23T04:14:22.547Z,36.80
2018-11-23T04:17:26.579Z,33.20
2018-11-23T04:20:30.591Z,34.67
2018-11-23T04:23:34.606Z,34.43
2018-11-23T04:26:38.626Z,36.57
2018-11-23T04:29:42.642Z,33.37
2018-11-23T04:32:47.682Z,33.03
2018-11-23T04:35:51.792Z,36.97
2018-11-23T04:38:55.793Z,35.87
2018-11-23T04:41:59.861Z,33.93
2018-11-23T04:45:03.918Z,33.70
2018-11-23T04:48:07.922Z,33.47
2018-11-23T04:51:11.957Z,34.67
2018-11-23T04:54:16.006Z,34.97
2018-11-23T04:57:20.014Z,37.47
2018-11-23T05:00:24.052Z,36.40
2018-11-23T05:03:28.062Z,35.63
2018-11-23T05:06:32.069Z,38.33
2018-11-23T05:09:36.098Z,35.23
2018-11-23T05:12:40.630Z,35.10
2018-11-23T05:15:44.661Z,37.80
2018-11-23T05:18:48.679Z,36.40
2018-11-23T05:21:52.682Z,38.03
2018-11-23T05:24:56.694Z,34.30
2018-11-23T05:28:00.714Z,35.57
2018-11-23T05:31:05.394Z,35.90
2018-11-23T05:34:09.402Z,36.33
2018-11-23T05:37:13.566Z,34.67
2018-11-23T05:40:20.293Z,36.67
2018-11-23T05:43:24.463Z,38.83
2018-11-23T05:46:35.306Z,37.70
2018-11-23T05:49:40.556Z,34.30
2018-11-23T05:52:48.004Z,35.33
2018-11-23T05:55:52.130Z,36.97
2018-11-23T05:58:56.150Z,36.87
2018-11-23T06:02:00.167Z,33.87
2018-11-23T06:05:04.466Z,37.30
2018-11-23T06:08:08.481Z,35.10
2018-11-23T06:11:12.501Z,35.83
2018-11-23T06:14:16.500Z,37.80
2018-11-23T06:17:20.563Z,34.97
2018-11-23T06:20:25.811Z,33.23
2018-11-23T06:23:29.815Z,31.00
2018-11-23T06:26:33.997Z,33.60
2018-11-23T06:29:38.029Z,36.80
2018-11-23T06:32:53.389Z,33.47
2018-11-23T06:35:57.476Z,32.10
2018-11-23T06:39:01.498Z,33.03
2018-11-23T06:42:05.862Z,31.97
2018-11-23T06:45:10.408Z,30.60
2018-11-23T06:48:14.430Z,32.37
2018-11-23T06:51:18.439Z,34.63
2018-11-23T06:54:22.497Z,33.07
2018-11-23T06:57:26.502Z,31.33
2018-11-23T07:00:30.505Z,32.07
2018-11-23T07:03:34.525Z,32.27
2018-11-23T07:06:38.529Z,30.67
2018-11-23T07:09:42.547Z,32.67
2018-11-23T07:12:46.564Z,30.90
2018-11-23T07:15:50.576Z,30.50
2018-11-23T07:18:54.594Z,30.10
2018-11-23T07:21:58.601Z,31.57
2018-11-23T07:25:02.600Z,31.03
2018-11-23T07:28:06.628Z,32.13
2018-11-23T07:31:10.627Z,27.70
2018-11-23T07:34:14.646Z,27.87
2018-11-23T07:37:18.683Z,30.37
2018-11-23T07:40:35.869Z,28.30
2018-11-23T07:43:39.945Z,27.30
2018-11-23T07:46:43.963Z,28.17
2018-11-23T07:49:48.219Z,29.80
2018-11-23T07:52:52.234Z,31.90
2018-11-23T07:55:56.233Z,29.90
2018-11-23T07:59:00.287Z,31.27
2018-11-23T08:02:04.695Z,28.70
2018-11-23T08:05:09.948Z,30.37
2018-11-23T08:08:14.924Z,29.40
2018-11-23T08:11:18.949Z,28.57
2018-11-23T08:14:23.302Z,28.47
2018-11-23T08:17:27.345Z,28.97
2018-11-23T08:20:31.336Z,26.40
2018-11-23T08:23:35.358Z,31.10
2018-11-23T08:26:39.374Z,30.00
2018-11-23T08:29:43.378Z,29.93
2018-11-23T08:32:47.489Z,30.90
2018-11-23T08:35:51.608Z,30.60
2018-11-23T08:38:55.601Z,31.07
2018-11-23T08:41:59.609Z,31.43
2018-11-23T08:45:04.052Z,31.10
2018-11-23T08:48:08.076Z,31.40
2018-11-23T08:51:12.309Z,33.60
2018-11-23T08:54:16.329Z,32.57
2018-11-23T08:57:20.345Z,32.23
2018-11-23T09:00:26.512Z,30.90
2018-11-23T09:03:30.516Z,32.97
2018-11-23T09:06:34.568Z,33.27
2018-11-23T09:09:38.572Z,31.90
2018-11-23T09:12:43.369Z,34.47
2018-11-23T09:15:47.409Z,32.03
2018-11-23T09:18:51.416Z,34.87
2018-11-23T09:21:55.438Z,35.40
2018-11-23T09:24:59.446Z,34.00
2018-11-23T09:28:03.465Z,35.73
2018-11-23T09:31:07.498Z,36.00
2018-11-23T09:34:11.501Z,34.47
2018-11-23T09:37:15.510Z,34.70
2018-11-23T09:40:23.915Z,35.17
2018-11-23T09:43:27.922Z,35.40
2018-11-23T09:46:31.962Z,34.30
2018-11-23T09:49:35.987Z,36.43
2018-11-23T09:52:40.275Z,35.57
2018-11-23T09:55:44.324Z,35.57
2018-11-23T09:58:48.355Z,38.07
2018-11-23T10:01:52.359Z,36.70
2018-11-23T10:04:56.484Z,34.30
2018-11-23T10:08:02.694Z,34.83
2018-11-23T10:11:06.722Z,33.77
2018-11-23T10:14:10.925Z,33.93
2018-11-23T10:17:14.959Z,34.27
2018-11-23T10:20:20.403Z,34.83
2018-11-23T10:23:24.393Z,35.80
2018-11-23T10:26:28.410Z,35.67
2018-11-23T10:29:32.422Z,34.80
2018-11-23T10:32:36.431Z,35.13
2018-11-23T10:35:40.441Z,34.07
2018-11-23T10:38:44.449Z,34.97
2018-11-23T10:41:48.463Z,34.00
2018-11-23T10:44:52.481Z,33.97
2018-11-23T10:47:57.449Z,34.10
2018-11-23T10:51:01.459Z,30.47
2018-11-23T10:54:05.522Z,32.13
2018-11-23T10:57:09.521Z,31.20
2018-11-23T11:00:20.884Z,30.30
2018-11-23T11:03:33.384Z,33.87
2018-11-23T11:06:42.785Z,31.83
2018-11-23T11:09:46.796Z,32.97
2018-11-23T11:12:50.803Z,30.70
2018-11-23T11:15:54.835Z,34.90
2018-11-23T11:18:58.847Z,32.33
2018-11-23T11:22:02.850Z,33.90
2018-11-23T11:25:07.846Z,31.10
2018-11-23T11:28:11.854Z,33.10
2018-11-23T11:31:15.867Z,33.37
2018-11-23T11:34:19.894Z,27.90
2018-11-23T11:37:23.894Z,29.40
2018-11-23T11:40:27.913Z,28.17
2018-11-23T11:43:31.933Z,32.50
2018-11-23T11:46:36.037Z,28.23
2018-11-23T11:49:40.030Z,28.70
2018-11-23T11:52:45.500Z,29.63
2018-11-23T11:55:49.526Z,32.93
2018-11-23T11:58:53.537Z,30.70
2018-11-23T12:01:57.547Z,26.27
2018-11-23T12:05:01.562Z,27.83
2018-11-23T12:08:05.918Z,29.40
2018-11-23T12:11:09.919Z,30.03
2018-11-23T12:14:13.938Z,29.50
2018-11-23T12:17:17.945Z,30.77
2018-11-23T12:20:23.395Z,29.73
2018-11-23T12:23:27.411Z,28.13
2018-11-23T12:26:31.425Z,28.40
2018-11-23T12:29:35.465Z,28.80
2018-11-23T12:32:39.861Z,31.00
2018-11-23T12:35:43.878Z,27.00
2018-11-23T12:38:47.894Z,28.27
2018-11-23T12:41:51.905Z,26.10
2018-11-23T12:44:55.917Z,27.03
2018-11-23T12:47:59.944Z,26.87
2018-11-23T12:51:03.938Z,26.43
2018-11-23T12:54:07.941Z,26.83
2018-11-23T12:57:11.965Z,27.13
2018-11-23T13:00:19.403Z,26.50
2018-11-23T13:03:23.400Z,31.63
2018-11-23T13:06:27.418Z,28.17
2018-11-23T13:09:31.430Z,27.67
2018-11-23T13:12:35.426Z,25.87
2018-11-23T13:15:39.691Z,24.60
2018-11-23T13:18:43.702Z,26.40
2018-11-23T13:21:47.708Z,24.70
2018-11-23T13:24:52.075Z,25.97
2018-11-23T13:27:56.401Z,24.77
2018-11-23T13:31:00.420Z,23.63
2018-11-23T13:34:04.410Z,24.90
2018-11-23T13:37:08.427Z,24.37
2018-11-23T13:40:14.513Z,25.63
2018-11-23T13:43:18.563Z,25.80
2018-11-23T13:46:22.561Z,26.70
2018-11-23T13:49:26.861Z,27.37
2018-11-23T13:52:30.889Z,23.80
2018-11-23T13:55:34.891Z,24.10
2018-11-23T13:58:38.995Z,24.10
2018-11-23T14:01:43.029Z,24.53
2018-11-23T14:04:47.069Z,26.27
2018-11-23T14:07:52.590Z,24.50
2018-11-23T14:10:56.592Z,24.60
2018-11-23T14:14:00.622Z,26.43
2018-11-23T14:17:04.637Z,23.90
2018-11-23T14:20:10.414Z,25.90
2018-11-23T14:23:14.400Z,25.50
2018-11-23T14:26:18.410Z,26.97
2018-11-23T14:29:22.446Z,28.57
2018-11-23T14:32:26.468Z,26.20
2018-11-23T14:35:31.473Z,23.60
2018-11-23T14:38:35.486Z,24.00
2018-11-23T14:41:39.606Z,25.40
2018-11-23T14:44:43.614Z,24.20
2018-11-23T14:47:48.151Z,27.50
2018-11-23T14:50:53.195Z,27.77
2018-11-23T14:53:57.212Z,24.97
2018-11-23T14:57:01.206Z,26.00
2018-11-23T15:00:10.145Z,24.13
2018-11-23T15:03:14.162Z,25.60
2018-11-23T15:06:18.169Z,25.53
2018-11-23T15:09:22.202Z,26.50
2018-11-23T15:12:26.189Z,24.80
2018-11-23T15:15:31.558Z,26.33
2018-11-23T15:18:35.581Z,27.47
2018-11-23T15:21:39.586Z,27.83
2018-11-23T15:24:43.666Z,25.87
2018-11-23T15:27:47.689Z,26.33
2018-11-23T15:30:51.711Z,27.87
2018-11-23T15:33:55.721Z,27.10
2018-11-23T15:36:59.737Z,24.80
2018-11-23T15:40:03.767Z,24.53
2018-11-23T15:43:09.310Z,28.47
2018-11-23T15:46:13.342Z,28.43
2018-11-23T15:49:17.343Z,28.77
2018-11-23T15:52:21.366Z,31.37
2018-11-23T15:55:27.734Z,27.83
2018-11-23T15:58:31.730Z,23.90
2018-11-23T16:01:35.743Z,25.37
2018-11-23T16:04:39.780Z,25.93
2018-11-23T16:07:44.074Z,27.00
2018-11-23T16:10:48.139Z,26.33
2018-11-23T16:13:52.141Z,27.87
2018-11-23T16:16:56.181Z,27.23
2018-11-23T16:20:00.186Z,26.77
2018-11-23T16:23:05.613Z,27.80
2018-11-23T16:26:09.625Z,28.30
2018-11-23T16:29:13.679Z,28.87
2018-11-23T16:32:17.695Z,28.17
2018-11-23T16:35:23.203Z,30.20
2018-11-23T16:38:27.219Z,28.90
2018-11-23T16:41:31.235Z,34.20
2018-11-23T16:44:35.252Z,31.23
2018-11-23T16:47:39.323Z,28.60
2018-11-23T16:50:43.898Z,31.63
2018-11-23T16:53:47.929Z,32.40
2018-11-23T16:56:51.987Z,28.33
2018-11-23T16:59:56.016Z,32.60
2018-11-23T17:03:02.531Z,35.57
2018-11-23T17:06:06.589Z,28.77
2018-11-23T17:09:10.640Z,27.90
2018-11-23T17:12:14.670Z,29.10
2018-11-23T17:15:20.230Z,30.70
2018-11-23T17:18:24.262Z,30.23
2018-11-23T17:21:28.319Z,29.70
2018-11-23T17:24:32.347Z,29.07
2018-11-23T17:27:36.394Z,28.30
2018-11-23T17:30:40.557Z,28.70
2018-11-23T17:33:44.604Z,28.10
2018-11-23T17:36:48.618Z,24.27
2018-11-23T17:39:52.649Z,26.40
2018-11-23T17:42:56.978Z,26.67
2018-11-23T17:46:00.985Z,27.00
2018-11-23T17:49:05.028Z,28.90
2018-11-23T17:52:09.050Z,30.30
2018-11-23T17:55:13.722Z,28.70
2018-11-23T17:58:17.745Z,31.23
2018-11-23T18:01:21.780Z,30.30
2018-11-23T18:04:25.848Z,28.83
2018-11-23T18:07:29.865Z,27.07
2018-11-23T18:10:34.625Z,30.10
2018-11-23T18:13:38.672Z,32.27
2018-11-23T18:16:42.666Z,30.03
2018-11-23T18:19:46.722Z,28.77
2018-11-23T18:22:51.502Z,29.93
2018-11-23T18:25:55.546Z,34.43
2018-11-23T18:28:59.569Z,34.27
2018-11-23T18:32:03.595Z,39.50
2018-11-23T18:35:09.842Z,34.37
2018-11-23T18:38:13.887Z,41.63
2018-11-23T18:41:17.930Z,34.23
2018-11-23T18:44:21.959Z,31.63
2018-11-23T18:47:25.994Z,36.00
2018-11-23T18:50:30.020Z,33.70
2018-11-23T18:53:34.046Z,34.07
2018-11-23T18:56:38.082Z,35.57
2018-11-23T18:59:42.134Z,34.97
2018-11-23T19:02:47.172Z,34.30
2018-11-23T19:05:51.210Z,34.47
2018-11-23T19:08:55.254Z,33.80
2018-11-23T19:11:59.299Z,34.27
2018-11-23T19:15:03.401Z,33.40
2018-11-23T19:18:07.485Z,33.73
2018-11-23T19:21:12.217Z,34.93
2018-11-23T19:24:16.254Z,32.83
2018-11-23T19:27:20.278Z,30.90
2018-11-23T19:30:28.570Z,32.00
2018-11-23T19:33:29.234Z,33.07
2018-11-23T19:36:33.267Z,78.30
2018-11-23T19:39:37.298Z,41.90
2018-11-23T19:42:41.399Z,35.33
2018-11-23T19:45:45.426Z,35.20
2018-11-23T19:48:49.453Z,35.17
2018-11-23T19:51:53.474Z,30.27
2018-11-23T19:54:57.511Z,33.20
2018-11-23T19:58:01.530Z,33.30
2018-11-23T20:01:05.867Z,33.53
2018-11-23T20:04:09.898Z,34.87
2018-11-23T20:07:13.965Z,33.07
2018-11-23T20:10:18.875Z,33.70
2018-11-23T20:13:22.910Z,35.07
2018-11-23T20:16:26.967Z,38.67
2018-11-23T20:19:31.020Z,37.03
2018-11-23T20:22:35.091Z,37.00
2018-11-23T20:25:39.127Z,35.97
2018-11-23T20:28:43.203Z,37.87
2018-11-23T20:31:47.310Z,34.47
2018-11-23T20:34:51.346Z,33.70
2018-11-23T20:37:55.375Z,34.97
2018-11-23T20:40:59.385Z,35.67
2018-11-23T20:44:03.426Z,33.77
2018-11-23T20:47:07.532Z,33.67
2018-11-23T20:50:13.591Z,33.93
2018-11-23T20:53:17.619Z,34.50
2018-11-23T20:56:21.647Z,34.93
2018-11-23T20:59:25.689Z,39.80
2018-11-23T21:02:29.718Z,35.60
2018-11-23T21:05:33.724Z,35.60
2018-11-23T21:08:37.751Z,35.33
2018-11-23T21:11:41.789Z,37.47
2018-11-23T21:14:45.821Z,33.80
2018-11-23T21:17:49.882Z,43.43
2018-11-23T21:20:53.912Z,51.57
2018-11-23T21:23:57.942Z,36.33
2018-11-23T21:27:01.998Z,34.30
2018-11-23T21:30:12.119Z,34.73
2018-11-23T21:33:16.170Z,34.37
2018-11-23T21:36:20.202Z,35.57
2018-11-23T21:39:24.250Z,34.13
2018-11-23T21:42:28.354Z,36.47
2018-11-23T21:45:32.376Z,32.60
2018-11-23T21:48:36.421Z,33.80
2018-11-23T21:51:40.466Z,32.83
2018-11-23T21:54:44.489Z,34.50
2018-11-23T21:57:48.587Z,33.10
2018-11-23T22:00:53.173Z,37.07
2018-11-23T22:03:56.653Z,34.87
2018-11-23T22:07:00.698Z,36.93
2018-11-23T22:10:10.454Z,34.87
2018-11-23T22:13:14.487Z,30.83
2018-11-23T22:16:18.537Z,35.93
2018-11-23T22:19:22.566Z,36.03
2018-11-23T22:22:26.597Z,33.30
2018-11-23T22:25:30.626Z,35.70
2018-11-23T22:28:34.672Z,32.53
2018-11-23T22:31:38.699Z,33.53
2018-11-23T22:34:42.721Z,33.53
2018-11-23T22:37:46.774Z,34.00
2018-11-23T22:40:50.799Z,33.23
2018-11-23T22:43:54.886Z,34.90
2018-11-23T22:46:59.677Z,34.43
2018-11-23T22:50:03.953Z,33.20
2018-11-23T22:53:07.995Z,33.57
2018-11-23T22:56:12.029Z,32.70
2018-11-23T22:59:16.050Z,35.43
2018-11-23T23:02:20.372Z,32.60
2018-11-23T23:05:24.765Z,33.73
2018-11-23T23:08:28.852Z,32.27
2018-11-23T23:11:32.871Z,32.93
2018-11-23T23:14:37.483Z,33.33
2018-11-23T23:17:41.834Z,34.67
2018-11-23T23:20:45.867Z,32.80
2018-11-23T23:23:49.887Z,30.90
2018-11-23T23:26:53.928Z,31.73
2018-11-23T23:29:57.956Z,29.10
2018-11-23T23:33:01.984Z,29.20
2018-11-23T23:36:06.004Z,29.03
2018-11-23T23:39:10.123Z,28.03
2018-11-23T23:42:14.177Z,29.80
2018-11-23T23:45:18.691Z,26.90
2018-11-23T23:48:22.781Z,26.60
2018-11-23T23:51:26.870Z,26.50
2018-11-23T23:54:30.884Z,26.47
2018-11-23T23:57:34.960Z,27.10
